Friday, October 19, 2018, 11:43 AM EDT
Back to Local

KASH, Nashua, Boire Field Airport

Location: Nashua, NH, United States Lat: 42.782
Local Time: 11:43 AM EDT (15:43 GMT) Lon: -71.515
Time Zone: US/Eastern Elev: 200 ft

Show me the last for .
Show Decoded

2018-10-19 10:56 METAR KASH 191456Z COR VRB06KT 10SM CLR 09/01 A3015 RMK AO2 SLP222 T00940011
                 58021 =
2018-10-19 09:56 METAR KASH 191356Z VRB05KT 10SM CLR 07/01 A3019 RMK AO2 SLP234 T00720006 =
2018-10-19 08:56 METAR KASH 191256Z 00000KT 10SM CLR 04/M01 A3021 RMK AO2 SLP242 T00391006 =
2018-10-19 07:56 METAR KASH 191156Z 09004KT 10SM CLR 01/M01 A3022 RMK AO2 SLP244 T00061006 10006
                 21033 56005 =
2018-10-19 06:56 METAR KASH 191056Z 10004KT 10SM CLR M02/M03 A3022 RMK AO2 SLP245 T10171028 =
2018-10-19 05:56 METAR KASH 190956Z AUTO VRB03KT 10SM CLR M01/M02 A3022 RMK AO2 SLP245 T10061022
                 =
2018-10-19 04:56 METAR KASH 190856Z AUTO VRB03KT 10SM CLR M03/M04 A3023 RMK AO2 SLP249 T10331039
                 58009 =
2018-10-19 03:56 METAR KASH 190756Z AUTO 00000KT 10SM CLR M03/M03 A3024 RMK AO2 SLP252 T10281033
                 =
2018-10-19 02:56 METAR KASH 190656Z AUTO 00000KT 10SM CLR M02/M04 A3025 RMK AO2 SLP254 T10221039
                 =
2018-10-19 01:56 METAR KASH 190556Z AUTO 00000KT 10SM CLR M01/M03 A3026 RMK AO2 SLP258 T10111033
                 10022 21011 56004 =
2018-10-19 00:56 METAR KASH 190456Z AUTO 20003KT 10SM CLR 01/M04 A3026 RMK AO2 SLP260 T00061039
                 400781006 =
2018-10-18 23:56 METAR KASH 190356Z AUTO 23004KT 10SM CLR 01/M06 A3026 RMK AO2 SLP260 T00111056 =
2018-10-18 22:56 METAR KASH 190256Z AUTO 26004KT 10SM CLR 02/M06 A3027 RMK AO2 SLP262 T00221061
                 52007 =
2018-10-18 21:56 METAR KASH 190156Z AUTO VRB03KT 10SM CLR 02/M07 A3026 RMK AO2 SLP258 T00171067 =
2018-10-18 20:56 METAR KASH 190056Z 25004KT 10SM CLR 01/M05 A3025 RMK AO2 SLP257 T00111050 =
2018-10-18 18:56 METAR KASH 182256Z 00000KT 10SM CLR 02/M06 A3025 RMK AO2 SLP254 T00221056 =
2018-10-18 17:56 METAR KASH 182156Z 28007KT 10SM CLR 06/M09 A3022 RMK AO2 SLP247 T00561094 =
2018-10-18 16:56 METAR KASH 182056Z 29009KT 10SM CLR 07/M09 A3021 RMK AO2 SLP241 T00671094 53002
                 =
2018-10-18 15:56 METAR KASH 181956Z 28008G19KT 10SM CLR 07/M09 A3020 RMK AO2 SLP238 T00721094 =
2018-10-18 14:56 METAR KASH 181856Z 31014G21KT 10SM CLR 07/M10 A3020 RMK AO2 PK WND 32026/1839
                 SLP237 T00721100 =
2018-10-18 13:56 METAR KASH 181756Z 30017G23KT 10SM FEW060 07/M09 A3020 RMK AO2 SLP238 T00721094
                 10072 20022 58001 =
2018-10-18 12:56 METAR KASH 181656Z 33016G23KT 10SM SCT060 06/M09 A3021 RMK AO2 PK WND 32026/1630
                 SLP240 T00611094 =
2018-10-18 11:56 METAR KASH 181556Z 31015G22KT 10SM SCT060 06/M08 A3022 RMK AO2 SLP243 T00611083
                 =

Support USWX by starting your Amazon purchase here.